sensor_id;sensor_type;location;lat;lon;timestamp;pressure;altitude;pressure_sealevel;temperature;humidity
54910;BME280;63189;51.240;9.964;2023-04-29T00:00:19;97358.66;;;10.97;100.00
54910;BME280;63189;51.240;9.964;2023-04-29T00:02:45;97356.13;;;10.95;100.00
54910;BME280;63189;51.240;9.964;2023-04-29T00:05:10;97350.84;;;10.97;100.00
54910;BME280;63189;51.240;9.964;2023-04-29T00:07:35;97357.75;;;10.98;100.00
54910;BME280;63189;51.240;9.964;2023-04-29T00:10:01;97347.47;;;10.95;100.00
54910;BME280;63189;51.240;9.964;2023-04-29T00:12:26;97356.91;;;10.97;100.00
54910;BME280;63189;51.240;9.964;2023-04-29T00:14:54;97353.38;;;10.98;100.00
54910;BME280;63189;51.240;9.964;2023-04-29T00:17:19;97349.00;;;10.99;100.00
54910;BME280;63189;51.240;9.964;2023-04-29T00:19:45;97351.56;;;11.01;100.00
54910;BME280;63189;51.240;9.964;2023-04-29T00:22:10;97344.66;;;10.99;100.00
54910;BME280;63189;51.240;9.964;2023-04-29T00:24:35;97354.09;;;11.02;100.00
54910;BME280;63189;51.240;9.964;2023-04-29T00:27:01;97339.28;;;11.03;100.00
54910;BME280;63189;51.240;9.964;2023-04-29T00:29:27;97353.06;;;11.06;100.00
54910;BME280;63189;51.240;9.964;2023-04-29T00:31:52;97345.25;;;11.06;100.00
54910;BME280;63189;51.240;9.964;2023-04-29T00:34:17;97350.47;;;11.06;100.00
54910;BME280;63189;51.240;9.964;2023-04-29T00:36:43;97348.78;;;11.05;100.00
54910;BME280;63189;51.240;9.964;2023-04-29T00:39:08;97356.53;;;11.07;100.00
54910;BME280;63189;51.240;9.964;2023-04-29T00:41:33;97355.69;;;11.06;100.00
54910;BME280;63189;51.240;9.964;2023-04-29T00:43:59;97354.88;;;11.04;100.00
54910;BME280;63189;51.240;9.964;2023-04-29T00:46:24;97354.78;;;11.07;100.00
54910;BME280;63189;51.240;9.964;2023-04-29T00:48:50;97359.22;;;11.05;100.00
54910;BME280;63189;51.240;9.964;2023-04-29T00:51:17;97354.00;;;11.05;100.00
54910;BME280;63189;51.240;9.964;2023-04-29T00:53:42;97368.59;;;11.09;100.00
54910;BME280;63189;51.240;9.964;2023-04-29T00:56:08;97359.06;;;11.08;100.00
54910;BME280;63189;51.240;9.964;2023-04-29T00:58:34;97362.69;;;11.04;100.00
54910;BME280;63189;51.240;9.964;2023-04-29T01:01:01;97365.97;;;11.09;100.00
54910;BME280;63189;51.240;9.964;2023-04-29T01:03:28;97362.59;;;11.07;100.00
54910;BME280;63189;51.240;9.964;2023-04-29T01:09:17;97369.56;;;11.07;100.00
54910;BME280;63189;51.240;9.964;2023-04-29T01:12:19;97367.13;;;11.02;100.00
54910;BME280;63189;51.240;9.964;2023-04-29T01:15:22;97374.91;;;11.04;100.00
54910;BME280;63189;51.240;9.964;2023-04-29T01:20:18;97376.66;;;11.03;100.00
54910;BME280;63189;51.240;9.964;2023-04-29T01:22:43;97370.66;;;11.01;100.00
54910;BME280;63189;51.240;9.964;2023-04-29T01:25:09;97380.31;;;10.99;100.00
54910;BME280;63189;51.240;9.964;2023-04-29T01:27:46;97381.16;;;10.99;100.00
54910;BME280;63189;51.240;9.964;2023-04-29T01:30:41;97384.63;;;11.00;100.00
54910;BME280;63189;51.240;9.964;2023-04-29T01:38:41;97394.34;;;10.96;100.00
54910;BME280;63189;51.240;9.964;2023-04-29T01:41:15;97396.16;;;10.94;100.00
54910;BME280;63189;51.240;9.964;2023-04-29T01:43:43;97395.28;;;10.94;100.00
54910;BME280;63189;51.240;9.964;2023-04-29T01:46:15;97399.78;;;10.90;100.00
54910;BME280;63189;51.240;9.964;2023-04-29T01:48:41;97403.38;;;10.88;100.00
54910;BME280;63189;51.240;9.964;2023-04-29T01:51:07;97406.06;;;10.86;100.00
54910;BME280;63189;51.240;9.964;2023-04-29T01:53:32;97394.00;;;10.84;100.00
54910;BME280;63189;51.240;9.964;2023-04-29T01:55:58;97396.72;;;10.81;100.00
54910;BME280;63189;51.240;9.964;2023-04-29T01:58:23;97407.13;;;10.81;100.00
54910;BME280;63189;51.240;9.964;2023-04-29T02:00:49;97399.44;;;10.78;100.00
54910;BME280;63189;51.240;9.964;2023-04-29T02:03:14;97399.59;;;10.75;100.00
54910;BME280;63189;51.240;9.964;2023-04-29T02:05:41;97415.22;;;10.75;100.00
54910;BME280;63189;51.240;9.964;2023-04-29T02:08:07;97402.19;;;10.75;100.00
54910;BME280;63189;51.240;9.964;2023-04-29T02:10:32;97408.19;;;10.77;100.00
54910;BME280;63189;51.240;9.964;2023-04-29T02:12:57;97407.28;;;10.78;100.00
54910;BME280;63189;51.240;9.964;2023-04-29T02:15:25;97412.47;;;10.78;100.00
54910;BME280;63189;51.240;9.964;2023-04-29T02:17:51;97408.13;;;10.78;100.00
54910;BME280;63189;51.240;9.964;2023-04-29T02:20:18;97402.97;;;10.77;100.00
54910;BME280;63189;51.240;9.964;2023-04-29T02:22:43;97402.13;;;10.76;100.00
54910;BME280;63189;51.240;9.964;2023-04-29T02:25:09;97405.56;;;10.77;100.00
54910;BME280;63189;51.240;9.964;2023-04-29T02:27:35;97406.41;;;10.77;100.00
54910;BME280;63189;51.240;9.964;2023-04-29T02:30:00;97410.78;;;10.77;100.00
54910;BME280;63189;51.240;9.964;2023-04-29T02:32:26;97417.69;;;10.78;100.00
54910;BME280;63189;51.240;9.964;2023-04-29T02:34:51;97420.31;;;10.78;100.00
54910;BME280;63189;51.240;9.964;2023-04-29T02:37:17;97418.63;;;10.77;100.00
54910;BME280;63189;51.240;9.964;2023-04-29T02:39:43;97417.84;;;10.75;100.00
54910;BME280;63189;51.240;9.964;2023-04-29T02:42:08;97418.69;;;10.75;100.00
54910;BME280;63189;51.240;9.964;2023-04-29T02:44:34;97417.94;;;10.72;100.00
54910;BME280;63189;51.240;9.964;2023-04-29T02:46:59;97418.97;;;10.67;100.00
54910;BME280;63189;51.240;9.964;2023-04-29T02:49:25;97421.72;;;10.64;100.00
54910;BME280;63189;51.240;9.964;2023-04-29T02:51:50;97424.47;;;10.60;100.00
54910;BME280;63189;51.240;9.964;2023-04-29T02:54:16;97417.75;;;10.54;100.00
54910;BME280;63189;51.240;9.964;2023-04-29T02:56:41;97429.19;;;10.50;100.00
54910;BME280;63189;51.240;9.964;2023-04-29T02:59:07;97437.94;;;10.49;100.00
54910;BME280;63189;51.240;9.964;2023-04-29T03:01:33;97424.19;;;10.46;100.00
54910;BME280;63189;51.240;9.964;2023-04-29T03:03:59;97432.97;;;10.43;100.00
54910;BME280;63189;51.240;9.964;2023-04-29T03:06:24;97426.84;;;10.44;100.00
54910;BME280;63189;51.240;9.964;2023-04-29T03:08:50;97426.06;;;10.42;100.00
54910;BME280;63189;51.240;9.964;2023-04-29T03:11:17;97438.22;;;10.41;100.00
54910;BME280;63189;51.240;9.964;2023-04-29T03:13:42;97430.47;;;10.40;100.00
54910;BME280;63189;51.240;9.964;2023-04-29T03:16:07;97424.59;;;10.35;100.00
54910;BME280;63189;51.240;9.964;2023-04-29T03:18:33;97437.56;;;10.36;100.00
54910;BME280;63189;51.240;9.964;2023-04-29T03:20:58;97429.94;;;10.30;100.00
54910;BME280;63189;51.240;9.964;2023-04-29T03:23:24;97427.34;;;10.30;100.00
54910;BME280;63189;51.240;9.964;2023-04-29T03:25:49;97426.63;;;10.27;100.00
54910;BME280;63189;51.240;9.964;2023-04-29T03:28:17;97433.47;;;10.29;100.00
54910;BME280;63189;51.240;9.964;2023-04-29T03:30:42;97431.84;;;10.27;100.00
54910;BME280;63189;51.240;9.964;2023-04-29T03:33:07;97431.84;;;10.27;100.00
54910;BME280;63189;51.240;9.964;2023-04-29T03:35:33;97432.03;;;10.22;100.00
54910;BME280;63189;51.240;9.964;2023-04-29T03:37:58;97430.31;;;10.20;100.00
54910;BME280;63189;51.240;9.964;2023-04-29T03:40:23;97428.63;;;10.19;100.00
54910;BME280;63189;51.240;9.964;2023-04-29T03:42:49;97425.97;;;10.20;100.00
54910;BME280;63189;51.240;9.964;2023-04-29T03:45:14;97428.56;;;10.22;100.00
54910;BME280;63189;51.240;9.964;2023-04-29T03:47:40;97434.63;;;10.22;100.00
54910;BME280;63189;51.240;9.964;2023-04-29T03:50:06;97436.38;;;10.22;100.00
54910;BME280;63189;51.240;9.964;2023-04-29T03:52:32;97433.78;;;10.22;100.00
54910;BME280;63189;51.240;9.964;2023-04-29T03:55:00;97431.97;;;10.24;100.00
54910;BME280;63189;51.240;9.964;2023-04-29T03:57:26;97440.75;;;10.20;100.00
54910;BME280;63189;51.240;9.964;2023-04-29T03:59:51;97436.44;;;10.19;100.00
54910;BME280;63189;51.240;9.964;2023-04-29T04:02:16;97444.19;;;10.20;100.00
54910;BME280;63189;51.240;9.964;2023-04-29T04:04:42;97445.97;;;10.20;100.00
54910;BME280;63189;51.240;9.964;2023-04-29T04:07:07;97451.16;;;10.20;100.00
54910;BME280;63189;51.240;9.964;2023-04-29T04:09:32;97454.75;;;10.17;100.00
54910;BME280;63189;51.240;9.964;2023-04-29T04:11:58;97450.31;;;10.19;100.00
54910;BME280;63189;51.240;9.964;2023-04-29T04:14:23;97455.59;;;10.18;100.00
54910;BME280;63189;51.240;9.964;2023-04-29T04:16:48;97467.72;;;10.19;100.00
54910;BME280;63189;51.240;9.964;2023-04-29T04:19:15;97464.19;;;10.20;100.00
54910;BME280;63189;51.240;9.964;2023-04-29T04:21:40;97465.94;;;10.19;100.00
54910;BME280;63189;51.240;9.964;2023-04-29T04:24:06;97472.97;;;10.17;100.00
54910;BME280;63189;51.240;9.964;2023-04-29T04:26:32;97474.69;;;10.18;100.00
54910;BME280;63189;51.240;9.964;2023-04-29T04:28:57;97478.13;;;10.19;100.00
54910;BME280;63189;51.240;9.964;2023-04-29T04:31:23;97476.50;;;10.16;100.00
54910;BME280;63189;51.240;9.964;2023-04-29T04:33:48;97477.41;;;10.15;100.00
54910;BME280;63189;51.240;9.964;2023-04-29T04:36:13;97486.06;;;10.16;100.00
54910;BME280;63189;51.240;9.964;2023-04-29T04:38:38;97485.22;;;10.15;100.00
54910;BME280;63189;51.240;9.964;2023-04-29T04:41:07;97488.78;;;10.12;100.00
54910;BME280;63189;51.240;9.964;2023-04-29T04:43:33;97489.78;;;10.08;100.00
54910;BME280;63189;51.240;9.964;2023-04-29T04:45:58;97493.34;;;10.06;100.00
54910;BME280;63189;51.240;9.964;2023-04-29T04:48:23;97505.53;;;10.05;100.00
54910;BME280;63189;51.240;9.964;2023-04-29T04:50:49;97506.50;;;10.03;100.00
54910;BME280;63189;51.240;9.964;2023-04-29T04:53:14;97502.13;;;10.03;100.00
54910;BME280;63189;51.240;9.964;2023-04-29T04:55:39;97502.19;;;10.02;100.00
54910;BME280;63189;51.240;9.964;2023-04-29T04:58:05;97519.47;;;10.04;100.00
54910;BME280;63189;51.240;9.964;2023-04-29T05:00:31;97512.56;;;10.03;100.00
54910;BME280;63189;51.240;9.964;2023-04-29T05:02:56;97514.44;;;9.98;100.00
54910;BME280;63189;51.240;9.964;2023-04-29T05:05:22;97518.81;;;9.98;100.00
54910;BME280;63189;51.240;9.964;2023-04-29T05:07:47;97517.19;;;9.95;100.00
54910;BME280;63189;51.240;9.964;2023-04-29T05:10:13;97528.50;;;9.94;100.00
54910;BME280;63189;51.240;9.964;2023-04-29T05:12:38;97525.19;;;9.89;100.00
54910;BME280;63189;51.240;9.964;2023-04-29T05:15:03;97523.50;;;9.88;100.00
54910;BME280;63189;51.240;9.964;2023-04-29T05:17:29;97533.91;;;9.88;100.00
54910;BME280;63189;51.240;9.964;2023-04-29T05:19:55;97531.34;;;9.87;100.00
54910;BME280;63189;51.240;9.964;2023-04-29T05:22:20;97532.44;;;9.81;100.00
54910;BME280;63189;51.240;9.964;2023-04-29T05:24:45;97537.72;;;9.78;100.00
54910;BME280;63189;51.240;9.964;2023-04-29T05:27:13;97532.63;;;9.75;100.00
54910;BME280;63189;51.240;9.964;2023-04-29T05:29:38;97537.09;;;9.71;100.00
54910;BME280;63189;51.240;9.964;2023-04-29T05:32:03;97542.44;;;9.67;100.00
54910;BME280;63189;51.240;9.964;2023-04-29T05:34:30;97543.34;;;9.66;100.00
54910;BME280;63189;51.240;9.964;2023-04-29T05:36:55;97547.75;;;9.64;100.00
54910;BME280;63189;51.240;9.964;2023-04-29T05:39:21;97543.56;;;9.60;100.00
54910;BME280;63189;51.240;9.964;2023-04-29T05:41:47;97548.84;;;9.57;100.00
54910;BME280;63189;51.240;9.964;2023-04-29T05:44:12;97560.22;;;9.54;100.00
54910;BME280;63189;51.240;9.964;2023-04-29T05:46:37;97568.09;;;9.52;100.00
54910;BME280;63189;51.240;9.964;2023-04-29T05:49:03;97566.50;;;9.48;100.00
54910;BME280;63189;51.240;9.964;2023-04-29T05:51:28;97567.34;;;9.49;100.00
54910;BME280;63189;51.240;9.964;2023-04-29T05:53:54;97569.97;;;9.47;100.00
54910;BME280;63189;51.240;9.964;2023-04-29T05:56:19;97574.19;;;9.51;100.00
54910;BME280;63189;51.240;9.964;2023-04-29T05:58:45;97574.19;;;9.51;100.00
54910;BME280;63189;51.240;9.964;2023-04-29T06:01:10;97570.88;;;9.46;100.00
54910;BME280;63189;51.240;9.964;2023-04-29T06:03:36;97586.34;;;9.51;100.00
54910;BME280;63189;51.240;9.964;2023-04-29T06:06:01;97582.13;;;9.47;100.00
54910;BME280;63189;51.240;9.964;2023-04-29T06:08:28;97595.00;;;9.51;100.00
54910;BME280;63189;51.240;9.964;2023-04-29T06:10:53;97589.00;;;9.49;100.00
54910;BME280;63189;51.240;9.964;2023-04-29T06:13:18;97602.72;;;9.54;100.00
54910;BME280;63189;51.240;9.964;2023-04-29T06:15:44;97605.47;;;9.50;100.00
54910;BME280;63189;51.240;9.964;2023-04-29T06:18:09;97613.34;;;9.48;100.00
54910;BME280;63189;51.240;9.964;2023-04-29T06:20:34;97608.94;;;9.50;100.00
54910;BME280;63189;51.240;9.964;2023-04-29T06:23:00;97608.03;;;9.51;100.00
54910;BME280;63189;51.240;9.964;2023-04-29T06:25:25;97599.38;;;9.51;100.00
54910;BME280;63189;51.240;9.964;2023-04-29T06:27:50;97618.31;;;9.54;100.00
54910;BME280;63189;51.240;9.964;2023-04-29T06:30:16;97612.38;;;9.51;100.00
54910;BME280;63189;51.240;9.964;2023-04-29T06:32:41;97608.13;;;9.48;100.00
54910;BME280;63189;51.240;9.964;2023-04-29T06:35:07;97624.63;;;9.47;100.00
54910;BME280;63189;51.240;9.964;2023-04-29T06:37:32;97627.16;;;9.50;100.00
54910;BME280;63189;51.240;9.964;2023-04-29T06:39:58;97637.63;;;9.47;100.00
54910;BME280;63189;51.240;9.964;2023-04-29T06:42:23;97640.22;;;9.49;100.00
54910;BME280;63189;51.240;9.964;2023-04-29T06:44:48;97636.78;;;9.47;100.00
54910;BME280;63189;51.240;9.964;2023-04-29T06:47:14;97636.84;;;9.45;100.00
54910;BME280;63189;51.240;9.964;2023-04-29T06:49:39;97646.34;;;9.46;100.00
54910;BME280;63189;51.240;9.964;2023-04-29T06:52:04;97646.22;;;9.51;100.00
54910;BME280;63189;51.240;9.964;2023-04-29T06:54:30;97647.00;;;9.53;100.00
54910;BME280;63189;51.240;9.964;2023-04-29T06:56:55;97649.56;;;9.54;100.00
54910;BME280;63189;51.240;9.964;2023-04-29T06:59:22;97652.09;;;9.56;100.00
54910;BME280;63189;51.240;9.964;2023-04-29T07:01:47;97656.34;;;9.59;100.00
54910;BME280;63189;51.240;9.964;2023-04-29T07:04:13;97662.53;;;9.56;100.00
54910;BME280;63189;51.240;9.964;2023-04-29T07:06:38;97664.22;;;9.57;100.00
54910;BME280;63189;51.240;9.964;2023-04-29T07:09:03;97668.56;;;9.57;100.00
54910;BME280;63189;51.240;9.964;2023-04-29T07:11:29;97665.19;;;9.54;100.00
54910;BME280;63189;51.240;9.964;2023-04-29T07:13:54;97666.06;;;9.53;100.00
54910;BME280;63189;51.240;9.964;2023-04-29T07:16:21;97674.00;;;9.50;100.00
54910;BME280;63189;51.240;9.964;2023-04-29T07:18:47;97679.25;;;9.47;100.00
54910;BME280;63189;51.240;9.964;2023-04-29T07:21:14;97679.38;;;9.44;100.00
54910;BME280;63189;51.240;9.964;2023-04-29T07:23:39;97689.03;;;9.41;100.00
54910;BME280;63189;51.240;9.964;2023-04-29T07:26:12;97690.72;;;9.42;100.00
54910;BME280;63189;51.240;9.964;2023-04-29T07:28:38;97691.63;;;9.41;100.00
54910;BME280;63189;51.240;9.964;2023-04-29T07:31:03;97696.72;;;9.44;100.00
54910;BME280;63189;51.240;9.964;2023-04-29T07:33:29;97701.97;;;9.42;100.00
54910;BME280;63189;51.240;9.964;2023-04-29T07:35:55;97708.88;;;9.43;100.00
54910;BME280;63189;51.240;9.964;2023-04-29T07:38:20;97718.28;;;9.47;100.00
54910;BME280;63189;51.240;9.964;2023-04-29T07:40:46;97711.38;;;9.46;100.00
54910;BME280;63189;51.240;9.964;2023-04-29T07:43:11;97722.63;;;9.48;100.00
54910;BME280;63189;51.240;9.964;2023-04-29T07:45:36;97725.84;;;9.57;100.00
54910;BME280;63189;51.240;9.964;2023-04-29T07:48:02;97722.25;;;9.61;100.00
54910;BME280;63189;51.240;9.964;2023-04-29T07:50:27;97729.06;;;9.65;100.00
54910;BME280;63189;51.240;9.964;2023-04-29T07:52:52;97737.66;;;9.67;100.00
54910;BME280;63189;51.240;9.964;2023-04-29T07:55:19;97735.88;;;9.69;100.00
54910;BME280;63189;51.240;9.964;2023-04-29T07:57:45;97736.75;;;9.69;100.00
54910;BME280;63189;51.240;9.964;2023-04-29T08:00:10;97746.28;;;9.69;100.00
54910;BME280;63189;51.240;9.964;2023-04-29T08:02:36;97746.28;;;9.69;100.00
54910;BME280;63189;51.240;9.964;2023-04-29T08:05:01;97749.66;;;9.72;100.00
54910;BME280;63189;51.240;9.964;2023-04-29T08:07:27;97751.31;;;9.75;100.00
54910;BME280;63189;51.240;9.964;2023-04-29T08:09:52;97759.94;;;9.77;100.00
54910;BME280;63189;51.240;9.964;2023-04-29T08:12:18;97762.47;;;9.78;100.00
54910;BME280;63189;51.240;9.964;2023-04-29T08:14:43;97762.63;;;9.74;100.00
54910;BME280;63189;51.240;9.964;2023-04-29T08:17:08;97769.44;;;9.78;100.00
54910;BME280;63189;51.240;9.964;2023-04-29T08:19:34;97763.38;;;9.77;100.00
54910;BME280;63189;51.240;9.964;2023-04-29T08:22:00;97773.75;;;9.79;100.00
54910;BME280;63189;51.240;9.964;2023-04-29T08:24:25;97781.50;;;9.82;100.00
54910;BME280;63189;51.240;9.964;2023-04-29T08:26:51;97778.03;;;9.81;100.00
54910;BME280;63189;51.240;9.964;2023-04-29T08:29:17;97772.66;;;9.86;100.00
54910;BME280;63189;51.240;9.964;2023-04-29T08:31:43;97777.88;;;9.86;100.00
54910;BME280;63189;51.240;9.964;2023-04-29T08:34:08;97778.69;;;9.88;100.00
54910;BME280;63189;51.240;9.964;2023-04-29T08:36:34;97771.88;;;9.84;100.00
54910;BME280;63189;51.240;9.964;2023-04-29T08:39:03;97789.16;;;9.87;100.00
54910;BME280;63189;51.240;9.964;2023-04-29T08:41:30;97791.66;;;9.90;100.00
54910;BME280;63189;51.240;9.964;2023-04-29T08:43:58;97790.72;;;9.92;100.00
54910;BME280;63189;51.240;9.964;2023-04-29T08:46:26;97795.72;;;9.98;100.00
54910;BME280;63189;51.240;9.964;2023-04-29T08:48:52;97794.81;;;9.99;100.00
54910;BME280;63189;51.240;9.964;2023-04-29T08:51:18;97800.88;;;10.01;100.00
54910;BME280;63189;51.240;9.964;2023-04-29T08:53:44;97796.50;;;10.02;100.00
54910;BME280;63189;51.240;9.964;2023-04-29T08:56:15;97806.81;;;10.05;100.00
54910;BME280;63189;51.240;9.964;2023-04-29T08:58:44;97804.91;;;10.11;100.00
54910;BME280;63189;51.240;9.964;2023-04-29T09:01:10;97801.97;;;10.21;100.00
54910;BME280;63189;51.240;9.964;2023-04-29T09:03:44;97807.84;;;10.29;100.00
54910;BME280;63189;51.240;9.964;2023-04-29T09:06:11;97805.16;;;10.32;100.00
54910;BME280;63189;51.240;9.964;2023-04-29T09:08:36;97818.03;;;10.36;100.00
54910;BME280;63189;51.240;9.964;2023-04-29T09:11:04;97813.78;;;10.34;100.00
54910;BME280;63189;51.240;9.964;2023-04-29T09:13:30;97812.88;;;10.35;100.00
54910;BME280;63189;51.240;9.964;2023-04-29T09:15:56;97815.47;;;10.35;100.00
54910;BME280;63189;51.240;9.964;2023-04-29T09:18:42;97824.19;;;10.34;100.00
54910;BME280;63189;51.240;9.964;2023-04-29T09:21:24;97823.34;;;10.33;100.00
54910;BME280;63189;51.240;9.964;2023-04-29T09:23:52;97823.19;;;10.38;100.00
54910;BME280;63189;51.240;9.964;2023-04-29T09:26:18;97829.31;;;10.37;100.00
54910;BME280;63189;51.240;9.964;2023-04-29T09:28:44;97828.50;;;10.35;100.00
54910;BME280;63189;51.240;9.964;2023-04-29T09:31:12;97835.25;;;10.40;100.00
54910;BME280;63189;51.240;9.964;2023-04-29T09:33:52;97831.72;;;10.43;100.00
54910;BME280;63189;51.240;9.964;2023-04-29T09:36:37;97834.97;;;10.50;100.00
54910;BME280;63189;51.240;9.964;2023-04-29T09:39:04;97824.66;;;10.47;100.00
54910;BME280;63189;51.240;9.964;2023-04-29T09:41:38;97836.78;;;10.48;100.00
54910;BME280;63189;51.240;9.964;2023-04-29T09:44:04;97839.44;;;10.46;100.00
54910;BME280;63189;51.240;9.964;2023-04-29T09:46:32;97835.19;;;10.44;100.00
54910;BME280;63189;51.240;9.964;2023-04-29T09:48:57;97847.38;;;10.43;100.00
54910;BME280;63189;51.240;9.964;2023-04-29T09:51:23;97843.06;;;10.42;100.00
54910;BME280;63189;51.240;9.964;2023-04-29T09:53:49;97852.56;;;10.43;100.00
54910;BME280;63189;51.240;9.964;2023-04-29T09:56:14;97854.41;;;10.39;100.00
54910;BME280;63189;51.240;9.964;2023-04-29T09:58:43;97857.28;;;10.32;100.00
54910;BME280;63189;51.240;9.964;2023-04-29T10:01:10;97863.34;;;10.31;100.00
54910;BME280;63189;51.240;9.964;2023-04-29T10:03:37;97867.88;;;10.26;100.00
54910;BME280;63189;51.240;9.964;2023-04-29T10:06:04;97863.47;;;10.28;100.00
54910;BME280;63189;51.240;9.964;2023-04-29T10:08:31;97874.63;;;10.31;100.00
54910;BME280;63189;51.240;9.964;2023-04-29T10:10:59;97861.91;;;10.21;100.00
54910;BME280;63189;51.240;9.964;2023-04-29T10:13:25;97874.09;;;10.22;100.00
54910;BME280;63189;51.240;9.964;2023-04-29T10:18:36;97872.84;;;10.04;100.00
54910;BME280;63189;51.240;9.964;2023-04-29T10:21:07;97881.63;;;10.00;100.00
54910;BME280;63189;51.240;9.964;2023-04-29T10:23:35;97873.88;;;9.98;100.00
54910;BME280;63189;51.240;9.964;2023-04-29T10:26:02;97879.97;;;9.97;100.00
54910;BME280;63189;51.240;9.964;2023-04-29T10:28:31;97881.72;;;9.97;100.00
54910;BME280;63189;51.240;9.964;2023-04-29T10:31:01;97893.03;;;9.96;100.00
54910;BME280;63189;51.240;9.964;2023-04-29T10:33:30;97892.28;;;9.92;100.00
54910;BME280;63189;51.240;9.964;2023-04-29T10:36:00;97900.16;;;9.89;100.00
54910;BME280;63189;51.240;9.964;2023-04-29T10:38:40;97904.53;;;9.89;100.00
54910;BME280;63189;51.240;9.964;2023-04-29T10:41:16;97903.78;;;9.85;100.00
54910;BME280;63189;51.240;9.964;2023-04-29T10:43:43;97910.59;;;9.89;100.00
54910;BME280;63189;51.240;9.964;2023-04-29T10:48:42;97914.09;;;9.88;100.00
54910;BME280;63189;51.240;9.964;2023-04-29T10:51:07;97910.78;;;9.83;100.00
54910;BME280;63189;51.240;9.964;2023-04-29T10:53:33;97907.28;;;9.84;100.00
54910;BME280;63189;51.240;9.964;2023-04-29T10:56:06;97914.09;;;9.88;100.00
54910;BME280;63189;51.240;9.964;2023-04-29T10:58:44;97915.72;;;9.92;100.00
54910;BME280;63189;51.240;9.964;2023-04-29T11:01:12;97907.78;;;9.97;100.00
54910;BME280;63189;51.240;9.964;2023-04-29T11:03:45;97918.78;;;10.06;100.00
54910;BME280;63189;51.240;9.964;2023-04-29T11:06:12;97929.00;;;10.14;100.00
54910;BME280;63189;51.240;9.964;2023-04-29T11:08:37;97917.56;;;10.18;100.00
54910;BME280;63189;51.240;9.964;2023-04-29T11:11:07;97920.00;;;10.26;100.00
54910;BME280;63189;51.240;9.964;2023-04-29T11:13:38;97922.44;;;10.30;100.00
54910;BME280;63189;51.240;9.964;2023-04-29T11:16:04;97932.78;;;10.33;100.00
54910;BME280;63189;51.240;9.964;2023-04-29T11:18:30;97932.00;;;10.30;100.00
54910;BME280;63189;51.240;9.964;2023-04-29T11:23:41;97944.25;;;10.28;100.00
54910;BME280;63189;51.240;9.964;2023-04-29T11:26:07;97948.66;;;10.26;100.00
54910;BME280;63189;51.240;9.964;2023-04-29T11:28:34;97946.94;;;10.25;100.00
54910;BME280;63189;51.240;9.964;2023-04-29T11:30:59;97954.00;;;10.20;100.00
54910;BME280;63189;51.240;9.964;2023-04-29T11:33:26;97949.88;;;10.12;100.00
54910;BME280;63189;51.240;9.964;2023-04-29T11:35:52;97954.25;;;10.10;100.00
54910;BME280;63189;51.240;9.964;2023-04-29T11:38:32;97963.00;;;10.08;100.00
54910;BME280;63189;51.240;9.964;2023-04-29T11:40:58;97954.31;;;10.09;100.00
54910;BME280;63189;51.240;9.964;2023-04-29T11:43:24;97956.00;;;10.10;100.00
54910;BME280;63189;51.240;9.964;2023-04-29T11:45:51;97955.09;;;10.12;100.00
54910;BME280;63189;51.240;9.964;2023-04-29T11:48:17;97967.28;;;10.10;100.00
54910;BME280;63189;51.240;9.964;2023-04-29T11:50:47;97967.28;;;10.10;100.00
54910;BME280;63189;51.240;9.964;2023-04-29T11:53:14;97961.25;;;10.08;100.00
54910;BME280;63189;51.240;9.964;2023-04-29T11:55:44;97969.00;;;10.11;100.00
54910;BME280;63189;51.240;9.964;2023-04-29T11:58:10;97973.31;;;10.12;100.00
54910;BME280;63189;51.240;9.964;2023-04-29T12:00:35;97981.16;;;10.12;100.00
54910;BME280;63189;51.240;9.964;2023-04-29T12:03:01;97976.84;;;10.11;100.00
54910;BME280;63189;51.240;9.964;2023-04-29T12:05:26;97981.16;;;10.12;100.00
54910;BME280;63189;51.240;9.964;2023-04-29T12:07:53;97980.25;;;10.13;100.00
54910;BME280;63189;51.240;9.964;2023-04-29T12:10:19;97981.00;;;10.17;100.00
54910;BME280;63189;51.240;9.964;2023-04-29T12:12:45;97973.19;;;10.17;100.00
54910;BME280;63189;51.240;9.964;2023-04-29T12:15:12;97985.31;;;10.18;100.00
54910;BME280;63189;51.240;9.964;2023-04-29T12:17:38;97981.78;;;10.22;100.00
54910;BME280;63189;51.240;9.964;2023-04-29T12:20:05;97983.31;;;10.28;100.00
54910;BME280;63189;51.240;9.964;2023-04-29T12:22:33;97988.44;;;10.31;100.00
54910;BME280;63189;51.240;9.964;2023-04-29T12:24:58;97993.53;;;10.35;100.00
54910;BME280;63189;51.240;9.964;2023-04-29T12:27:25;97995.09;;;10.41;100.00
54910;BME280;63189;51.240;9.964;2023-04-29T12:29:51;97994.13;;;10.45;100.00
54910;BME280;63189;51.240;9.964;2023-04-29T12:32:21;97993.00;;;10.54;100.00
54910;BME280;63189;51.240;9.964;2023-04-29T12:34:49;97986.75;;;10.59;100.00
54910;BME280;63189;51.240;9.964;2023-04-29T12:37:16;97996.19;;;10.63;100.00
54910;BME280;63189;51.240;9.964;2023-04-29T12:39:42;97995.19;;;10.67;100.00
54910;BME280;63189;51.240;9.964;2023-04-29T12:42:16;97995.03;;;10.74;100.00
54910;BME280;63189;51.240;9.964;2023-04-29T12:44:44;97992.31;;;10.77;100.00
54910;BME280;63189;51.240;9.964;2023-04-29T12:47:11;98001.75;;;10.81;100.00
54910;BME280;63189;51.240;9.964;2023-04-29T12:49:40;98004.34;;;10.81;100.00
54910;BME280;63189;51.240;9.964;2023-04-29T12:52:06;98000.84;;;10.82;100.00
54910;BME280;63189;51.240;9.964;2023-04-29T12:54:40;97999.06;;;10.82;100.00
54910;BME280;63189;51.240;9.964;2023-04-29T12:57:07;98002.41;;;10.87;100.00
54910;BME280;63189;51.240;9.964;2023-04-29T12:59:33;98001.47;;;10.90;100.00
54910;BME280;63189;51.240;9.964;2023-04-29T13:01:58;98000.59;;;10.89;100.00
54910;BME280;63189;51.240;9.964;2023-04-29T13:04:23;98001.63;;;10.85;100.00
54910;BME280;63189;51.240;9.964;2023-04-29T13:06:49;97996.34;;;10.87;100.00
54910;BME280;63189;51.240;9.964;2023-04-29T13:09:18;98004.13;;;10.88;100.00